createdAt,value
2018-09-06T00:02:27.595Z,39.21
2018-09-06T00:04:58.467Z,37.74
2018-09-06T00:07:29.086Z,39.16
2018-09-06T00:09:59.726Z,39.66
2018-09-06T00:12:30.398Z,39.90
2018-09-06T00:15:01.388Z,37.80
2018-09-06T00:17:32.130Z,39.04
2018-09-06T00:20:03.063Z,39.20
2018-09-06T00:22:33.754Z,36.07
2018-09-06T00:25:04.673Z,35.20
2018-09-06T00:27:35.542Z,35.78
2018-09-06T00:30:06.192Z,35.53
2018-09-06T00:32:37.055Z,35.27
2018-09-06T00:35:08.083Z,35.24
2018-09-06T00:37:39.151Z,35.56
2018-09-06T00:40:10.513Z,36.12
2018-09-06T00:42:41.764Z,38.86
2018-09-06T00:45:12.675Z,38.69
2018-09-06T00:47:43.490Z,37.14
2018-09-06T00:50:20.005Z,36.07
2018-09-06T00:52:51.614Z,37.45
2018-09-06T00:55:22.801Z,37.30
2018-09-06T00:57:53.471Z,36.28
2018-09-06T01:00:24.201Z,36.12
2018-09-06T01:02:54.785Z,34.56
2018-09-06T01:05:25.612Z,33.45
2018-09-06T01:07:56.331Z,34.62
2018-09-06T01:10:27.217Z,34.26
2018-09-06T01:12:57.824Z,33.97
2018-09-06T01:15:28.733Z,34.11
2018-09-06T01:17:59.465Z,36.40
2018-09-06T01:20:30.121Z,35.06
2018-09-06T01:23:00.822Z,36.12
2018-09-06T01:26:03.296Z,37.20
2018-09-06T01:28:33.625Z,37.21
2018-09-06T01:31:04.465Z,38.56
2018-09-06T01:33:35.853Z,37.98
2018-09-06T01:37:14.057Z,37.67
2018-09-06T01:39:44.492Z,37.60
2018-09-06T01:42:15.161Z,36.97
2018-09-06T01:44:45.656Z,37.19
2018-09-06T01:47:16.440Z,36.23
2018-09-06T01:49:47.217Z,37.10
2018-09-06T01:52:18.213Z,37.13
2018-09-06T01:54:48.741Z,38.07
2018-09-06T01:57:19.713Z,38.93
2018-09-06T01:59:50.398Z,38.76
2018-09-06T02:02:21.136Z,38.90
2018-09-06T02:04:51.779Z,39.50
2018-09-06T02:07:22.721Z,38.33
2018-09-06T02:09:53.459Z,37.49
2018-09-06T02:12:24.274Z,37.94
2018-09-06T02:14:55.030Z,37.97
2018-09-06T02:17:25.912Z,36.29
2018-09-06T02:19:56.533Z,37.01
2018-09-06T02:22:27.182Z,37.67
2018-09-06T02:24:58.093Z,37.13
2018-09-06T02:27:28.919Z,38.19
2018-09-06T02:29:59.609Z,38.87
2018-09-06T02:32:30.336Z,39.12
2018-09-06T02:35:00.994Z,39.21
2018-09-06T02:37:31.698Z,40.03
2018-09-06T02:40:02.509Z,39.70
2018-09-06T02:42:33.268Z,38.93
2018-09-06T02:45:03.983Z,38.84
2018-09-06T02:47:37.181Z,38.76
2018-09-06T02:50:12.692Z,40.03
2018-09-06T02:52:43.645Z,37.92
2018-09-06T02:55:14.624Z,38.96
2018-09-06T02:57:45.609Z,38.89
2018-09-06T03:00:16.155Z,39.01
2018-09-06T03:02:47.026Z,40.27
2018-09-06T03:05:17.790Z,39.02
2018-09-06T03:07:48.492Z,38.64
2018-09-06T03:10:19.328Z,38.47
2018-09-06T03:12:49.981Z,37.67
2018-09-06T03:15:20.793Z,38.00
2018-09-06T03:17:51.434Z,39.28
2018-09-06T03:20:22.248Z,38.63
2018-09-06T03:22:54.244Z,38.73
2018-09-06T03:25:24.938Z,38.07
2018-09-06T03:27:55.492Z,39.55
2018-09-06T03:30:26.253Z,39.93
2018-09-06T03:32:57.117Z,38.13
2018-09-06T03:35:27.666Z,37.51
2018-09-06T03:37:58.677Z,38.13
2018-09-06T03:40:29.130Z,37.81
2018-09-06T03:42:59.981Z,40.15
2018-09-06T03:45:30.868Z,38.01
2018-09-06T03:48:01.646Z,38.55
2018-09-06T03:50:32.344Z,39.70
2018-09-06T03:53:03.185Z,39.65
2018-09-06T03:55:33.781Z,39.53
2018-09-06T03:58:04.644Z,40.27
2018-09-06T04:00:35.365Z,40.49
2018-09-06T04:03:06.601Z,38.85
2018-09-06T04:05:37.245Z,39.52
2018-09-06T04:08:07.885Z,37.94
2018-09-06T04:10:38.424Z,39.44
2018-09-06T04:13:09.380Z,37.54
2018-09-06T04:15:40.106Z,40.69
2018-09-06T04:18:11.264Z,37.69
2018-09-06T04:20:41.801Z,37.39
2018-09-06T04:23:12.679Z,38.72
2018-09-06T04:25:43.505Z,38.17
2018-09-06T04:28:14.624Z,38.99
2018-09-06T04:30:45.363Z,38.63
2018-09-06T04:33:16.297Z,38.36
2018-09-06T04:35:46.902Z,38.13
2018-09-06T04:38:17.838Z,39.09
2018-09-06T04:40:48.559Z,38.34
2018-09-06T04:43:19.740Z,38.01
2018-09-06T04:45:55.604Z,38.07
2018-09-06T04:48:27.858Z,38.95
2018-09-06T04:50:58.345Z,37.48
2018-09-06T04:53:29.225Z,37.69
2018-09-06T04:55:59.878Z,36.58
2018-09-06T04:58:30.848Z,36.62
2018-09-06T05:01:01.408Z,34.87
2018-09-06T05:03:32.189Z,34.92
2018-09-06T05:06:02.898Z,36.88
2018-09-06T05:08:33.635Z,37.30
2018-09-06T05:11:04.217Z,35.98
2018-09-06T05:13:34.956Z,36.62
2018-09-06T05:16:05.603Z,35.58
2018-09-06T05:18:36.605Z,34.61
2018-09-06T05:21:07.344Z,35.73
2018-09-06T05:23:38.102Z,34.99
2018-09-06T05:26:08.707Z,34.51
2018-09-06T05:28:39.316Z,33.39
2018-09-06T05:31:10.018Z,32.45
2018-09-06T05:33:40.820Z,31.81
2018-09-06T05:36:11.554Z,33.75
2018-09-06T05:38:42.441Z,33.46
2018-09-06T05:41:13.143Z,36.01
2018-09-06T05:43:43.849Z,34.73
2018-09-06T05:46:14.812Z,34.91
2018-09-06T05:48:45.677Z,35.37
2018-09-06T05:51:16.173Z,35.86
2018-09-06T05:53:46.905Z,35.94
2018-09-06T05:56:17.467Z,35.03
2018-09-06T05:58:48.270Z,33.64
2018-09-06T06:01:18.953Z,32.53
2018-09-06T06:03:49.564Z,31.67
2018-09-06T06:06:20.206Z,30.84
2018-09-06T06:08:51.472Z,30.35
2018-09-06T06:11:22.100Z,30.50
2018-09-06T06:13:52.937Z,29.40
2018-09-06T06:16:24.209Z,30.73
2018-09-06T06:18:54.828Z,28.97
2018-09-06T06:21:25.450Z,31.17
2018-09-06T06:23:56.230Z,31.24
2018-09-06T06:26:26.893Z,32.77
2018-09-06T06:28:57.621Z,32.18
2018-09-06T06:31:28.257Z,30.87
2018-09-06T06:33:59.070Z,30.46
2018-09-06T06:36:29.738Z,30.79
2018-09-06T06:39:00.440Z,30.54
2018-09-06T06:41:31.093Z,30.17
2018-09-06T06:44:01.937Z,30.09
2018-09-06T06:46:32.584Z,30.40
2018-09-06T06:49:03.450Z,30.48
2018-09-06T06:51:34.699Z,30.59
2018-09-06T06:54:05.496Z,30.95
2018-09-06T06:56:36.145Z,30.09
2018-09-06T06:59:07.021Z,29.50
2018-09-06T07:01:37.624Z,29.78
2018-09-06T07:04:08.432Z,28.89
2018-09-06T07:06:39.099Z,28.30
2018-09-06T07:09:11.640Z,29.28
2018-09-06T07:11:42.133Z,27.20
2018-09-06T07:14:13.085Z,28.24
2018-09-06T07:16:43.706Z,28.53
2018-09-06T07:19:14.386Z,29.89
2018-09-06T07:21:45.036Z,29.76
2018-09-06T07:24:15.964Z,28.98
2018-09-06T07:26:46.644Z,27.77
2018-09-06T07:29:17.461Z,28.43
2018-09-06T07:31:48.181Z,26.43
2018-09-06T07:34:18.805Z,24.33
2018-09-06T07:36:49.476Z,26.42
2018-09-06T07:39:20.289Z,25.88
2018-09-06T07:41:50.957Z,25.21
2018-09-06T07:44:21.897Z,25.50
2018-09-06T07:46:52.549Z,25.72
2018-09-06T07:49:23.568Z,25.96
2018-09-06T07:51:54.189Z,25.09
2018-09-06T07:54:24.792Z,24.52
2018-09-06T07:56:55.453Z,24.49
2018-09-06T07:59:26.269Z,23.64
2018-09-06T08:01:56.764Z,24.60
2018-09-06T08:04:27.904Z,23.98
2018-09-06T08:06:58.582Z,24.86
2018-09-06T08:09:29.224Z,25.30
2018-09-06T08:11:59.872Z,24.03
2018-09-06T08:14:30.601Z,23.32
2018-09-06T08:17:01.273Z,24.25
2018-09-06T08:19:32.017Z,25.36
2018-09-06T08:22:02.690Z,24.43
2018-09-06T08:24:33.601Z,23.91
2018-09-06T08:27:04.209Z,22.96
2018-09-06T08:29:34.887Z,22.05
2018-09-06T08:32:05.602Z,23.46
2018-09-06T08:34:36.425Z,21.53
2018-09-06T08:37:07.149Z,22.13
2018-09-06T08:39:38.069Z,21.63
2018-09-06T08:42:09.352Z,21.95
2018-09-06T08:44:40.300Z,20.90
2018-09-06T08:47:11.169Z,20.98
2018-09-06T08:49:41.801Z,19.96
2018-09-06T08:52:12.445Z,20.27
2018-09-06T08:54:43.189Z,19.70
2018-09-06T08:57:13.858Z,20.57
2018-09-06T08:59:44.750Z,18.25
2018-09-06T09:02:15.678Z,19.60
2018-09-06T09:04:46.564Z,22.32
2018-09-06T09:07:17.161Z,21.91
2018-09-06T09:09:47.965Z,22.75
2018-09-06T09:12:18.501Z,19.53
2018-09-06T09:14:49.115Z,19.50
2018-09-06T09:17:19.661Z,19.34
2018-09-06T09:19:50.472Z,19.72
2018-09-06T09:22:21.283Z,19.05
2018-09-06T09:24:52.085Z,17.22
2018-09-06T09:27:22.748Z,19.35
2018-09-06T09:29:53.494Z,19.99
2018-09-06T09:32:24.089Z,20.08
2018-09-06T09:34:54.944Z,19.68
2018-09-06T09:37:25.783Z,19.82
2018-09-06T09:39:56.129Z,18.50
2018-09-06T09:42:26.900Z,16.89
2018-09-06T09:44:57.412Z,18.56
2018-09-06T09:49:57.925Z,18.94
2018-09-06T09:52:28.686Z,19.41
2018-09-06T09:55:01.248Z,21.52
2018-09-06T09:57:31.948Z,19.64
2018-09-06T10:00:04.482Z,17.57
2018-09-06T10:02:40.094Z,17.53
2018-09-06T10:05:15.689Z,19.59
2018-09-06T10:07:51.225Z,16.03
2018-09-06T10:10:21.817Z,18.40
2018-09-06T10:12:52.382Z,19.30
2018-09-06T10:15:23.490Z,18.74
2018-09-06T10:17:54.086Z,18.28
2018-09-06T10:20:24.898Z,20.60
2018-09-06T10:22:55.745Z,20.07
2018-09-06T10:25:26.722Z,21.43
2018-09-06T10:27:57.488Z,19.82
2018-09-06T10:30:28.534Z,19.41
2018-09-06T10:32:59.163Z,17.94
2018-09-06T10:35:30.146Z,17.92
2018-09-06T10:38:00.917Z,18.95
2018-09-06T10:40:32.689Z,19.26
2018-09-06T10:43:03.182Z,19.26
2018-09-06T10:45:34.197Z,18.50
2018-09-06T10:48:04.865Z,18.58
2018-09-06T10:50:35.534Z,18.69
2018-09-06T10:53:05.997Z,19.05
2018-09-06T10:55:36.981Z,18.58
2018-09-06T10:58:07.682Z,20.84
2018-09-06T11:00:38.532Z,19.15
2018-09-06T11:03:09.364Z,18.95
2018-09-06T11:05:40.229Z,20.22
2018-09-06T11:08:10.814Z,19.53
2018-09-06T11:10:41.589Z,17.88
2018-09-06T11:13:12.265Z,18.34
2018-09-06T11:15:43.182Z,19.02
2018-09-06T11:18:13.749Z,17.62
2018-09-06T11:20:44.501Z,17.97
2018-09-06T11:23:15.121Z,17.58
2018-09-06T11:25:45.828Z,18.10
2018-09-06T11:28:16.480Z,16.76
2018-09-06T11:30:47.488Z,17.82
2018-09-06T11:33:18.355Z,16.38
2018-09-06T11:35:49.320Z,18.36
2018-09-06T11:38:19.995Z,17.90
2018-09-06T11:40:50.972Z,19.25
2018-09-06T11:43:21.678Z,20.37
2018-09-06T11:45:52.538Z,19.29
2018-09-06T11:48:23.498Z,20.08
2018-09-06T11:50:54.081Z,18.91
2018-09-06T11:53:24.301Z,17.20
2018-09-06T11:55:54.932Z,18.42
2018-09-06T11:58:25.362Z,16.89
2018-09-06T12:00:56.342Z,18.14
2018-09-06T12:03:26.741Z,18.04
2018-09-06T12:05:57.478Z,17.67
2018-09-06T12:08:28.113Z,17.42
2018-09-06T12:10:58.972Z,16.33
2018-09-06T12:13:29.628Z,16.58
2018-09-06T12:16:00.366Z,17.50
2018-09-06T12:18:30.999Z,15.53
2018-09-06T12:21:01.638Z,17.31
2018-09-06T12:23:32.524Z,17.35
2018-09-06T12:26:03.492Z,16.67
2018-09-06T12:28:34.161Z,15.96
2018-09-06T12:31:04.961Z,15.98
2018-09-06T12:33:35.970Z,18.37
2018-09-06T12:36:06.672Z,17.47
2018-09-06T12:38:37.346Z,16.75
2018-09-06T12:41:08.485Z,15.55
2018-09-06T12:43:39.169Z,17.71
2018-09-06T12:46:10.829Z,17.37
2018-09-06T12:48:41.862Z,16.23
2018-09-06T12:51:12.669Z,15.76
2018-09-06T12:53:43.272Z,17.26
2018-09-06T12:56:14.302Z,17.76
2018-09-06T12:58:44.760Z,16.65
2018-09-06T13:01:15.581Z,17.84
2018-09-06T13:03:46.247Z,17.12
2018-09-06T13:06:17.100Z,16.63
2018-09-06T13:08:47.765Z,16.48
2018-09-06T13:11:18.877Z,15.90
2018-09-06T13:13:49.536Z,15.31
2018-09-06T13:16:20.323Z,15.31
2018-09-06T13:18:50.977Z,14.47
2018-09-06T13:21:21.901Z,14.42
2018-09-06T13:23:52.472Z,16.70
2018-09-06T13:26:23.408Z,15.49
2018-09-06T13:28:54.092Z,14.72
2018-09-06T13:31:25.202Z,14.38
2018-09-06T13:33:55.793Z,15.52
2018-09-06T13:36:26.617Z,15.86
2018-09-06T13:38:57.429Z,17.13
2018-09-06T13:41:28.325Z,15.25
2018-09-06T13:43:58.930Z,15.39
2018-09-06T13:46:29.705Z,16.42
2018-09-06T13:49:00.353Z,15.55
2018-09-06T13:51:31.108Z,15.06
2018-09-06T13:54:01.649Z,14.89
2018-09-06T13:56:32.849Z,16.02
2018-09-06T13:59:03.553Z,16.04
2018-09-06T14:01:34.621Z,17.16
2018-09-06T14:04:05.228Z,15.06
2018-09-06T14:06:35.989Z,16.19
2018-09-06T14:09:06.993Z,16.49
2018-09-06T14:11:38.053Z,15.87
2018-09-06T14:14:08.646Z,16.47
2018-09-06T14:16:39.420Z,17.26
2018-09-06T14:19:10.074Z,17.56
2018-09-06T14:21:40.794Z,17.76
2018-09-06T14:24:11.490Z,17.34
2018-09-06T14:26:42.489Z,17.29
2018-09-06T14:29:13.113Z,18.00
2018-09-06T14:31:44.131Z,18.76
2018-09-06T14:34:14.798Z,18.45
2018-09-06T14:36:45.693Z,18.27
2018-09-06T14:39:16.321Z,17.98
2018-09-06T14:41:46.958Z,19.20
2018-09-06T14:44:17.686Z,22.00
2018-09-06T14:46:48.553Z,23.99
2018-09-06T14:49:19.149Z,24.55
2018-09-06T14:51:49.685Z,23.84
2018-09-06T14:54:20.460Z,22.60
2018-09-06T14:56:51.131Z,22.43
2018-09-06T14:59:21.868Z,23.08
2018-09-06T15:01:54.154Z,22.08
2018-09-06T15:04:24.869Z,23.81
2018-09-06T15:06:55.737Z,22.12
2018-09-06T15:09:26.360Z,22.25
2018-09-06T15:11:56.976Z,22.85
2018-09-06T15:14:27.672Z,20.52
2018-09-06T15:16:58.541Z,21.45
2018-09-06T15:19:29.289Z,23.03
2018-09-06T15:21:59.829Z,22.48
2018-09-06T15:24:30.469Z,24.05
2018-09-06T15:27:01.269Z,22.13
2018-09-06T15:29:31.848Z,21.94
2018-09-06T15:32:02.545Z,21.28
2018-09-06T15:34:33.226Z,22.82
2018-09-06T15:37:04.165Z,21.04
2018-09-06T15:39:35.002Z,22.00
2018-09-06T15:42:05.717Z,21.26
2018-09-06T15:44:36.382Z,20.83
2018-09-06T15:47:07.313Z,21.24
2018-09-06T15:49:37.956Z,20.49
2018-09-06T15:52:08.797Z,20.85
2018-09-06T15:54:39.469Z,20.79
2018-09-06T15:57:10.213Z,21.15
2018-09-06T15:59:40.772Z,21.69
2018-09-06T16:02:11.657Z,21.03
2018-09-06T16:04:42.243Z,19.87
2018-09-06T16:07:13.097Z,21.42
2018-09-06T16:09:43.550Z,20.88
2018-09-06T16:12:14.306Z,21.93
2018-09-06T16:14:44.697Z,20.98
2018-09-06T16:17:15.674Z,21.80
2018-09-06T16:19:46.313Z,22.33
2018-09-06T16:22:17.061Z,21.59
2018-09-06T16:24:47.731Z,22.57
2018-09-06T16:27:18.521Z,21.62
2018-09-06T16:29:49.272Z,21.77
2018-09-06T16:32:20.250Z,21.87
2018-09-06T16:34:50.948Z,22.49
2018-09-06T16:37:21.761Z,22.87
2018-09-06T16:39:52.415Z,21.77
2018-09-06T16:42:23.184Z,22.44
2018-09-06T16:44:53.716Z,23.53
2018-09-06T16:47:24.722Z,23.44
2018-09-06T16:49:55.501Z,23.08
2018-09-06T16:52:26.461Z,22.52
2018-09-06T16:54:57.266Z,23.90
2018-09-06T16:57:29.613Z,22.15
2018-09-06T17:00:00.360Z,22.40
2018-09-06T17:02:31.217Z,22.02
2018-09-06T17:05:01.929Z,22.41
2018-09-06T17:07:32.716Z,23.14
2018-09-06T17:10:03.354Z,22.21
2018-09-06T17:12:34.454Z,22.39
2018-09-06T17:15:05.201Z,22.89
2018-09-06T17:17:36.090Z,22.85
2018-09-06T17:20:06.945Z,22.56
2018-09-06T17:22:37.700Z,23.12
2018-09-06T17:25:08.332Z,24.04
2018-09-06T17:27:39.161Z,23.14
2018-09-06T17:30:09.845Z,24.79
2018-09-06T17:32:40.633Z,24.76
2018-09-06T17:35:11.792Z,25.47
2018-09-06T17:37:42.474Z,26.40
2018-09-06T17:40:13.189Z,26.03
2018-09-06T17:42:43.985Z,24.95
2018-09-06T17:45:14.605Z,25.90
2018-09-06T17:47:45.500Z,25.27
2018-09-06T17:50:16.978Z,26.54
2018-09-06T17:52:47.933Z,26.07
2018-09-06T17:55:18.694Z,25.69
2018-09-06T17:57:49.345Z,26.39
2018-09-06T18:00:19.964Z,25.30
2018-09-06T18:02:50.707Z,25.68
2018-09-06T18:05:21.177Z,25.93
2018-09-06T18:07:52.021Z,26.29
2018-09-06T18:10:22.654Z,25.76
2018-09-06T18:12:53.520Z,25.75
2018-09-06T18:15:24.221Z,26.17
2018-09-06T18:17:56.029Z,25.72
2018-09-06T18:20:26.729Z,25.78
2018-09-06T18:22:57.677Z,26.50
2018-09-06T18:25:28.646Z,26.28
2018-09-06T18:27:59.549Z,25.59
2018-09-06T18:30:30.409Z,26.38
2018-09-06T18:33:01.262Z,29.03
2018-09-06T18:35:32.250Z,29.17
2018-09-06T18:38:05.198Z,28.01
2018-09-06T18:40:36.216Z,27.24
2018-09-06T18:43:07.143Z,28.07
2018-09-06T18:45:38.885Z,26.79
2018-09-06T18:48:12.123Z,26.25
2018-09-06T18:50:42.794Z,27.15
2018-09-06T18:53:13.557Z,25.99
2018-09-06T18:55:44.141Z,26.19
2018-09-06T18:58:14.941Z,26.18
2018-09-06T19:00:45.622Z,26.81
2018-09-06T19:03:16.534Z,26.88
2018-09-06T19:05:47.089Z,28.81
2018-09-06T19:08:17.835Z,27.68
2018-09-06T19:10:48.618Z,28.67
2018-09-06T19:13:19.645Z,27.79
2018-09-06T19:15:50.198Z,27.51
2018-09-06T19:18:20.917Z,27.73
2018-09-06T19:20:51.800Z,28.68
2018-09-06T19:23:23.013Z,28.97
2018-09-06T19:25:53.965Z,29.38
2018-09-06T19:28:24.924Z,28.99
2018-09-06T19:30:55.856Z,27.84
2018-09-06T19:33:27.121Z,29.45
2018-09-06T19:35:58.143Z,29.35
2018-09-06T19:38:28.774Z,28.91
2018-09-06T19:40:59.572Z,29.89
2018-09-06T19:43:30.665Z,30.90
2018-09-06T19:46:01.486Z,30.28
2018-09-06T19:48:32.525Z,29.67
2018-09-06T19:51:02.932Z,30.03
2018-09-06T19:53:33.691Z,28.99
2018-09-06T19:56:04.251Z,29.53
2018-09-06T19:58:35.009Z,29.84
2018-09-06T20:01:05.598Z,28.72
2018-09-06T20:03:36.532Z,29.20
2018-09-06T20:06:07.185Z,29.30
2018-09-06T20:08:37.941Z,30.26
2018-09-06T20:11:08.568Z,30.13
2018-09-06T20:13:39.546Z,29.96
2018-09-06T20:16:10.125Z,29.19
2018-09-06T20:18:40.846Z,27.68
2018-09-06T20:21:11.806Z,28.75
2018-09-06T20:23:42.769Z,28.76
2018-09-06T20:26:13.475Z,28.90
2018-09-06T20:28:44.242Z,28.37
2018-09-06T20:31:14.857Z,27.77
2018-09-06T20:33:45.730Z,28.55
2018-09-06T20:36:16.320Z,30.02
2018-09-06T20:38:47.361Z,28.87
2018-09-06T20:41:17.961Z,30.19
2018-09-06T20:43:48.670Z,28.03
2018-09-06T20:46:19.306Z,29.45
2018-09-06T20:48:50.118Z,29.73
2018-09-06T20:51:20.911Z,29.78
2018-09-06T20:53:51.810Z,29.35
2018-09-06T20:56:22.604Z,29.65
2018-09-06T20:58:53.529Z,30.86
2018-09-06T21:01:24.037Z,31.01
2018-09-06T21:03:54.729Z,31.91
2018-09-06T21:06:25.375Z,30.24
2018-09-06T21:08:56.808Z,30.49
2018-09-06T21:11:27.734Z,30.72
2018-09-06T21:13:58.594Z,30.70
2018-09-06T21:16:29.375Z,29.58
2018-09-06T21:19:00.534Z,30.15
2018-09-06T21:21:31.303Z,29.62
2018-09-06T21:24:02.277Z,29.82
2018-09-06T21:26:32.986Z,29.93
2018-09-06T21:29:03.810Z,29.39
2018-09-06T21:31:34.446Z,30.09
2018-09-06T21:34:05.145Z,29.98
2018-09-06T21:36:36.377Z,30.06
2018-09-06T21:39:11.186Z,30.10
2018-09-06T21:41:43.181Z,29.58
2018-09-06T21:44:13.963Z,29.38
2018-09-06T21:46:44.692Z,30.36
2018-09-06T21:49:16.260Z,30.87
2018-09-06T21:51:46.994Z,31.02
2018-09-06T21:54:17.908Z,30.78
2018-09-06T21:56:48.659Z,31.20
2018-09-06T21:59:19.525Z,30.19
2018-09-06T22:01:51.542Z,30.55
2018-09-06T22:04:22.396Z,29.91
2018-09-06T22:06:53.173Z,29.44
2018-09-06T22:09:24.077Z,29.93
2018-09-06T22:11:55.493Z,29.21
2018-09-06T22:14:26.583Z,30.63
2018-09-06T22:16:57.294Z,30.13
2018-09-06T22:19:28.186Z,30.15
2018-09-06T22:21:58.910Z,30.69
2018-09-06T22:24:29.505Z,31.14
2018-09-06T22:27:00.201Z,31.28
2018-09-06T22:29:32.077Z,31.98
2018-09-06T22:32:02.554Z,32.54
2018-09-06T22:34:33.462Z,31.93
2018-09-06T22:37:04.119Z,32.41
2018-09-06T22:39:34.768Z,31.96
2018-09-06T22:42:05.564Z,32.35
2018-09-06T22:44:36.467Z,31.49
2018-09-06T22:47:07.065Z,31.14
2018-09-06T22:49:37.926Z,31.11
2018-09-06T22:52:09.106Z,30.81
2018-09-06T22:54:39.840Z,30.31
2018-09-06T22:57:10.501Z,30.88
2018-09-06T22:59:41.198Z,29.77
2018-09-06T23:02:11.648Z,30.11
2018-09-06T23:04:42.420Z,30.92
2018-09-06T23:07:13.053Z,30.53
2018-09-06T23:09:43.730Z,31.21
2018-09-06T23:12:14.345Z,30.29
2018-09-06T23:14:44.792Z,33.26
2018-09-06T23:17:15.503Z,31.06
2018-09-06T23:19:46.270Z,33.24
2018-09-06T23:22:16.784Z,31.40
2018-09-06T23:24:47.474Z,31.44
2018-09-06T23:27:18.248Z,31.70
2018-09-06T23:29:49.086Z,34.23
2018-09-06T23:32:19.720Z,34.26
2018-09-06T23:34:50.716Z,32.92
2018-09-06T23:37:21.390Z,32.15
2018-09-06T23:39:52.372Z,31.55
2018-09-06T23:42:25.110Z,30.17
2018-09-06T23:44:57.164Z,30.76
2018-09-06T23:47:27.902Z,30.88
2018-09-06T23:49:59.656Z,31.85
2018-09-06T23:52:35.431Z,31.65
2018-09-06T23:55:07.349Z,30.80
2018-09-06T23:57:38.781Z,30.15
